Time;durP1;ratioP1;P1;durP2;ratioP2;P2;SDS_P1;SDS_P2;PMS_P1;PMS_P2;Temp;Humidity;BMP_temperature;BMP_pressure;BME280_temperature;BME280_humidity;BME280_pressure;Samples;Min_cycle;Max_cycle;Signal;HPM_P1;HPM_P2
2020/12/02 00:01:16;;;;;;;25.83;18.90;;;-2.60;99.90;;;;;;5049451;28;20414;-82
2020/12/02 00:03:45;;;;;;;21.33;15.98;;;-2.60;99.90;;;;;;5046190;28;20395;-83
2020/12/02 00:06:11;;;;;;;21.70;14.20;;;-2.60;99.90;;;;;;5073767;28;20534;-86
2020/12/02 00:08:45;;;;;;;24.45;15.68;;;-2.50;99.90;;;;;;5066623;28;20435;-83
2020/12/02 00:11:11;;;;;;;23.30;15.30;;;-2.70;99.90;;;;;;5055245;28;20402;-81
2020/12/02 00:13:39;;;;;;;23.42;14.25;;;-2.70;99.90;;;;;;5058300;28;20400;-80
2020/12/02 00:16:04;;;;;;;21.80;14.15;;;-2.70;99.90;;;;;;5042804;28;20413;-83
2020/12/02 00:18:30;;;;;;;21.40;15.50;;;-2.70;99.90;;;;;;5078894;28;20411;-81
2020/12/02 00:20:56;;;;;;;18.97;11.97;;;-2.70;99.90;;;;;;5066269;28;20918;-84
2020/12/02 00:23:21;;;;;;;17.55;11.73;;;-2.70;99.90;;;;;;5089332;28;20399;-82
2020/12/02 00:25:47;;;;;;;14.83;11.60;;;-2.60;99.90;;;;;;5071750;28;20390;-79
2020/12/02 00:28:13;;;;;;;17.93;11.53;;;-2.70;99.90;;;;;;5055410;28;20395;-81
2020/12/02 00:30:39;;;;;;;14.18;10.70;;;-2.70;99.90;;;;;;5075284;28;20397;-80
2020/12/02 00:33:15;;;;;;;16.40;10.38;;;-2.70;99.90;;;;;;5057241;28;20403;-83
2020/12/02 00:35:41;;;;;;;14.05;9.88;;;-2.70;99.90;;;;;;5069444;28;20405;-86
2020/12/02 00:38:08;;;;;;;14.10;9.53;;;-2.70;99.90;;;;;;5059054;28;20391;-85
2020/12/02 00:40:34;;;;;;;11.48;8.75;;;-2.70;99.90;;;;;;5062917;28;20387;-81
2020/12/02 00:42:59;;;;;;;17.45;9.77;;;-2.80;99.90;;;;;;5072348;28;20430;-81
2020/12/02 00:45:25;;;;;;;15.80;9.63;;;-2.80;99.90;;;;;;5070419;28;20425;-85
2020/12/02 00:47:51;;;;;;;13.20;9.17;;;-2.80;99.90;;;;;;5074159;28;20386;-85
2020/12/02 00:50:18;;;;;;;12.50;9.20;;;-2.80;99.90;;;;;;5070230;28;20403;-86
2020/12/02 00:53:00;;;;;;;13.18;9.55;;;-2.80;99.90;;;;;;5070518;28;20405;-89
2020/12/02 00:55:25;;;;;;;12.38;8.93;;;-2.70;99.90;;;;;;5083462;28;20415;-86
2020/12/02 00:57:52;;;;;;;16.13;9.52;;;-2.80;99.90;;;;;;5041629;28;20486;-82
2020/12/02 01:00:17;;;;;;;16.08;10.57;;;-2.80;99.90;;;;;;5075347;28;20396;-83
2020/12/02 01:02:50;;;;;;;13.48;9.48;;;-2.80;99.90;;;;;;5072201;28;20767;-84
2020/12/02 01:05:16;;;;;;;12.40;9.63;;;-2.80;99.90;;;;;;5056324;28;20399;-84
2020/12/02 01:07:42;;;;;;;18.13;10.93;;;-2.80;99.90;;;;;;5078653;28;20407;-85
2020/12/02 01:10:08;;;;;;;15.73;10.40;;;-2.80;99.90;;;;;;5090525;28;20940;-80
2020/12/02 01:12:34;;;;;;;15.32;10.10;;;-2.90;99.90;;;;;;5044191;28;20461;-82
2020/12/02 01:14:59;;;;;;;12.75;10.18;;;-2.90;99.90;;;;;;5062015;28;20776;-83
2020/12/02 01:17:25;;;;;;;13.83;10.00;;;-2.90;99.90;;;;;;5076701;28;20398;-84
2020/12/02 01:19:51;;;;;;;14.55;10.57;;;-3.00;99.90;;;;;;5061145;28;20394;-81
2020/12/02 01:22:29;;;;;;;14.63;10.40;;;-3.00;99.90;;;;;;5044271;28;20460;-80
2020/12/02 01:25:17;;;;;;;12.87;9.73;;;-2.90;99.90;;;;;;5038262;28;20406;-86
2020/12/02 01:27:52;;;;;;;13.40;9.77;;;-2.90;99.90;;;;;;5060108;28;20402;-83
2020/12/02 01:30:18;;;;;;;15.95;9.57;;;-2.90;99.90;;;;;;5059939;28;20398;-83
2020/12/02 01:32:44;;;;;;;16.42;10.45;;;-3.00;99.90;;;;;;5061509;28;20394;-84
2020/12/02 01:35:14;;;;;;;13.80;9.85;;;-3.00;99.90;;;;;;5055538;28;20404;-80
2020/12/02 01:37:43;;;;;;;14.47;9.00;;;-3.00;99.90;;;;;;5051058;28;20391;-83
2020/12/02 01:40:17;;;;;;;14.88;9.77;;;-3.00;99.90;;;;;;5074711;28;20402;-85
2020/12/02 01:42:47;;;;;;;12.15;9.55;;;-3.00;99.90;;;;;;5057851;28;20394;-87
2020/12/02 01:45:19;;;;;;;15.27;10.63;;;-3.00;99.90;;;;;;5070676;28;20406;-82
2020/12/02 01:47:58;;;;;;;13.32;9.43;;;-3.00;99.90;;;;;;5043597;28;20456;-83
2020/12/02 01:50:40;;;;;;;12.10;8.98;;;-3.00;99.90;;;;;;5033029;28;20398;-83
2020/12/02 01:53:16;;;;;;;13.55;9.88;;;-3.10;99.90;;;;;;5061868;28;20398;-82
2020/12/02 01:55:43;;;;;;;14.93;8.95;;;-3.10;99.90;;;;;;5051640;28;20414;-84
2020/12/02 01:58:16;;;;;;;11.95;8.73;;;-3.10;99.90;;;;;;5035378;28;20395;-83
2020/12/02 02:00:42;;;;;;;13.07;9.07;;;-3.00;99.90;;;;;;5059794;28;20436;-84
2020/12/02 02:03:17;;;;;;;12.13;9.00;;;-3.10;99.90;;;;;;5049083;28;20415;-81
2020/12/02 02:05:58;;;;;;;11.10;8.93;;;-3.10;99.90;;;;;;5056416;28;20392;-86
2020/12/02 02:08:29;;;;;;;12.82;8.88;;;-3.10;99.90;;;;;;5035964;28;20489;-83
2020/12/02 02:10:54;;;;;;;13.90;9.00;;;-3.10;99.90;;;;;;5027269;28;20413;-84
2020/12/02 02:13:51;;;;;;;10.63;8.05;;;-3.20;99.90;;;;;;5056372;28;20491;-84
2020/12/02 02:16:21;;;;;;;13.40;8.73;;;-3.20;99.90;;;;;;5078027;28;20418;-84
2020/12/02 02:18:46;;;;;;;12.70;9.20;;;-3.20;99.90;;;;;;5073062;28;20483;-82
2020/12/02 02:21:18;;;;;;;14.77;9.67;;;-3.20;99.90;;;;;;5021743;28;20460;-83
2020/12/02 02:23:43;;;;;;;11.83;8.47;;;-3.20;99.90;;;;;;5055728;28;20417;-83
2020/12/02 02:26:15;;;;;;;15.20;9.57;;;-3.20;99.90;;;;;;5040628;28;20419;-81
2020/12/02 02:28:59;;;;;;;12.60;8.43;;;-3.20;99.90;;;;;;5060217;28;20550;-86
2020/12/02 02:31:27;;;;;;;11.93;8.80;;;-3.20;99.90;;;;;;5071495;28;20398;-84
2020/12/02 02:33:53;;;;;;;14.95;10.07;;;-3.30;99.90;;;;;;5040254;28;20404;-82
2020/12/02 02:36:21;;;;;;;12.00;9.05;;;-3.30;99.90;;;;;;5053899;28;20388;-85
2020/12/02 02:38:47;;;;;;;15.70;9.25;;;-3.30;99.90;;;;;;5044972;28;20403;-84
2020/12/02 02:41:12;;;;;;;12.25;9.15;;;-3.20;99.90;;;;;;5066852;28;20417;-82
2020/12/02 02:43:39;;;;;;;18.50;10.93;;;-3.30;99.90;;;;;;5017722;28;20405;-81
2020/12/02 02:46:04;;;;;;;13.68;9.32;;;-3.30;99.90;;;;;;5034814;28;20676;-80
2020/12/02 02:48:31;;;;;;;12.47;8.50;;;-3.40;99.90;;;;;;5053648;28;20400;-80
2020/12/02 02:50:57;;;;;;;11.13;9.10;;;-3.40;99.90;;;;;;5049880;28;20406;-82
2020/12/02 02:53:23;;;;;;;11.25;8.55;;;-3.40;99.90;;;;;;5021783;28;20445;-84
2020/12/02 02:55:49;;;;;;;12.03;9.73;;;-3.40;99.90;;;;;;5057653;28;20409;-82
2020/12/02 02:58:15;;;;;;;12.13;9.40;;;-3.40;99.90;;;;;;5054936;28;20407;-82
2020/12/02 03:00:41;;;;;;;14.13;9.77;;;-3.40;99.90;;;;;;5071865;28;20407;-84
2020/12/02 03:03:10;;;;;;;11.68;8.55;;;-3.40;99.90;;;;;;5039440;28;20402;-83
2020/12/02 03:05:36;;;;;;;13.73;9.05;;;-3.40;99.90;;;;;;5038629;28;21189;-85
2020/12/02 03:08:04;;;;;;;13.33;9.53;;;-3.40;99.90;;;;;;5022396;28;20399;-82
2020/12/02 03:10:31;;;;;;;14.45;9.13;;;-3.40;99.90;;;;;;5023719;28;20402;-81
2020/12/02 03:12:59;;;;;;;10.85;8.50;;;-3.40;99.90;;;;;;5020046;28;20404;-82
2020/12/02 03:15:25;;;;;;;11.23;8.73;;;-3.30;99.90;;;;;;5045936;28;20398;-83
2020/12/02 03:17:50;;;;;;;10.07;8.40;;;-3.30;99.90;;;;;;5049487;28;20432;-82
2020/12/02 03:20:27;;;;;;;14.00;8.82;;;-3.30;99.90;;;;;;5051372;28;21048;-82
2020/12/02 03:22:52;;;;;;;11.32;8.23;;;-3.20;99.90;;;;;;5039358;28;20473;-82
2020/12/02 03:25:21;;;;;;;12.38;8.75;;;-3.20;99.90;;;;;;5052424;28;20495;-82
2020/12/02 03:27:46;;;;;;;10.95;8.27;;;-3.20;99.90;;;;;;5068038;28;20402;-83
2020/12/02 03:30:12;;;;;;;12.38;9.63;;;-3.20;99.90;;;;;;5016437;28;20392;-82
2020/12/02 03:32:38;;;;;;;11.75;9.05;;;-3.10;99.90;;;;;;5066730;28;20402;-82
2020/12/02 03:35:04;;;;;;;12.63;9.43;;;-3.00;99.90;;;;;;5056573;28;20873;-85
2020/12/02 03:37:29;;;;;;;12.73;9.03;;;-3.00;99.90;;;;;;5033645;28;20537;-82
2020/12/02 03:39:55;;;;;;;13.13;9.43;;;-3.00;99.90;;;;;;5036071;28;20387;-86
2020/12/02 03:42:21;;;;;;;11.30;9.40;;;-3.00;99.90;;;;;;5053273;28;20418;-83
2020/12/02 03:44:47;;;;;;;12.95;9.90;;;-2.90;99.90;;;;;;5048204;28;20391;-84
2020/12/02 03:47:13;;;;;;;15.15;10.52;;;-2.90;99.90;;;;;;5060438;28;20936;-85
2020/12/02 03:49:38;;;;;;;15.07;10.37;;;-2.80;99.90;;;;;;5061411;28;20406;-81
2020/12/02 03:52:04;;;;;;;13.30;9.63;;;-2.80;99.90;;;;;;5037773;28;21053;-83
2020/12/02 03:54:30;;;;;;;14.20;10.20;;;-2.70;99.90;;;;;;5068090;28;20410;-82
2020/12/02 03:56:55;;;;;;;15.97;10.90;;;-2.70;99.90;;;;;;5049620;28;20397;-88
2020/12/02 03:59:21;;;;;;;12.75;9.63;;;-2.50;99.90;;;;;;5051527;28;20401;-81
2020/12/02 04:01:46;;;;;;;17.02;10.93;;;-2.60;99.90;;;;;;5054869;28;20394;-81
2020/12/02 04:04:12;;;;;;;14.80;10.67;;;-2.50;99.90;;;;;;5055619;28;20495;-82
2020/12/02 04:06:38;;;;;;;17.65;11.00;;;-2.50;99.90;;;;;;5051129;28;20904;-84
2020/12/02 04:09:03;;;;;;;16.70;11.03;;;-2.50;99.90;;;;;;5041450;28;20483;-81
2020/12/02 04:11:29;;;;;;;17.30;11.47;;;-2.40;99.90;;;;;;5054161;28;20414;-83
2020/12/02 04:13:54;;;;;;;15.13;10.27;;;-2.40;99.90;;;;;;5035260;28;20400;-82
2020/12/02 04:16:20;;;;;;;16.23;10.60;;;-2.30;99.90;;;;;;5061999;28;20410;-82
2020/12/02 04:18:46;;;;;;;15.03;10.37;;;-2.30;99.90;;;;;;5025672;28;20482;-82
2020/12/02 04:21:11;;;;;;;15.40;10.55;;;-2.20;99.90;;;;;;5073147;28;20849;-82
2020/12/02 04:23:37;;;;;;;16.50;11.57;;;-2.20;99.90;;;;;;5054497;28;20391;-83
2020/12/02 04:26:03;;;;;;;12.48;10.70;;;-2.20;99.90;;;;;;5041171;28;20396;-84
2020/12/02 04:28:28;;;;;;;14.27;10.20;;;-2.20;99.90;;;;;;5040054;28;20410;-83
2020/12/02 04:30:58;;;;;;;14.93;10.87;;;-2.10;99.90;;;;;;5055527;28;20405;-81
2020/12/02 04:33:24;;;;;;;13.23;10.50;;;-2.10;99.90;;;;;;5054263;28;20386;-81
2020/12/02 04:35:49;;;;;;;14.00;10.90;;;-2.00;99.90;;;;;;5065661;28;20398;-84
2020/12/02 04:38:15;;;;;;;17.63;11.73;;;-2.10;99.90;;;;;;5046117;28;20883;-85
2020/12/02 04:40:41;;;;;;;16.37;11.47;;;-2.00;99.90;;;;;;5068796;28;20469;-83
2020/12/02 04:43:12;;;;;;;15.60;11.95;;;-1.90;99.90;;;;;;5045962;28;20386;-82
2020/12/02 04:45:38;;;;;;;22.77;13.88;;;-1.90;99.90;;;;;;5090272;28;20484;-82
2020/12/02 04:48:08;;;;;;;15.67;11.97;;;-1.90;99.90;;;;;;5027316;28;20418;-81
2020/12/02 04:50:34;;;;;;;15.37;11.47;;;-1.90;99.90;;;;;;5036593;28;20403;-82
2020/12/02 04:53:18;;;;;;;16.80;12.00;;;-1.90;99.90;;;;;;5055872;28;20412;-83
2020/12/02 04:55:46;;;;;;;17.00;12.27;;;-1.90;99.90;;;;;;5051976;28;20398;-86
2020/12/02 04:58:18;;;;;;;16.95;12.10;;;-1.80;99.90;;;;;;5054656;28;20392;-80
2020/12/02 05:00:44;;;;;;;17.13;12.00;;;-1.80;99.90;;;;;;5052693;28;20443;-86
2020/12/02 05:03:12;;;;;;;14.77;11.97;;;-1.80;99.90;;;;;;5067940;28;20961;-83
2020/12/02 05:05:37;;;;;;;22.75;13.05;;;-1.80;99.90;;;;;;5045326;28;20398;-83
2020/12/02 05:08:23;;;;;;;15.80;11.77;;;-1.80;99.90;;;;;;5043517;28;20398;-82
2020/12/02 05:10:50;;;;;;;18.17;13.15;;;-1.80;99.90;;;;;;5051150;28;20409;-87
2020/12/02 05:13:16;;;;;;;15.87;11.30;;;-1.80;99.90;;;;;;5046911;28;20398;-87
2020/12/02 05:15:41;;;;;;;19.20;13.17;;;-1.80;99.90;;;;;;5059968;28;20406;-81
2020/12/02 05:18:13;;;;;;;18.67;12.75;;;-1.80;99.90;;;;;;5066795;28;20415;-85
2020/12/02 05:20:39;;;;;;;18.27;12.00;;;-1.80;99.90;;;;;;5077483;28;20495;-81
2020/12/02 05:23:19;;;;;;;17.92;12.77;;;-1.80;99.90;;;;;;5030620;28;21026;-81
2020/12/02 05:25:45;;;;;;;19.48;12.95;;;-1.80;99.90;;;;;;5041612;28;20454;-84
2020/12/02 05:28:16;;;;;;;19.15;12.82;;;-1.70;99.90;;;;;;5057604;28;20406;-87
2020/12/02 05:30:42;;;;;;;18.60;12.38;;;-1.60;99.90;;;;;;5061076;28;20398;-81
2020/12/02 05:33:14;;;;;;;14.20;11.23;;;-1.60;99.90;;;;;;5049303;28;20398;-83
2020/12/02 05:35:50;;;;;;;16.20;11.93;;;-1.60;99.90;;;;;;5064094;28;20413;-82
2020/12/02 05:38:41;;;;;;;17.08;11.55;;;-1.50;99.90;;;;;;5047622;28;20406;-81
2020/12/02 05:41:11;;;;;;;19.40;12.52;;;-1.40;99.90;;;;;;5045196;28;20933;-86
2020/12/02 05:43:47;;;;;;;14.65;11.02;;;-1.40;99.90;;;;;;5054460;28;20485;-83
2020/12/02 05:46:28;;;;;;;17.23;12.32;;;-1.40;99.90;;;;;;5041047;28;20405;-83
2020/12/02 05:49:09;;;;;;;20.40;12.65;;;-1.30;99.90;;;;;;5025022;28;20443;-80
2020/12/02 05:51:35;;;;;;;17.63;12.35;;;-1.30;99.90;;;;;;5070742;28;20781;-82
2020/12/02 05:54:06;;;;;;;15.07;11.52;;;-1.30;99.90;;;;;;5039726;28;20417;-81
2020/12/02 05:56:32;;;;;;;19.65;12.38;;;-1.30;99.90;;;;;;5032863;28;20392;-80
2020/12/02 05:58:58;;;;;;;19.23;13.10;;;-1.30;99.90;;;;;;5038820;28;20378;-77
2020/12/02 06:01:23;;;;;;;17.20;11.90;;;-1.30;99.90;;;;;;5069147;28;20769;-84
2020/12/02 06:03:54;;;;;;;16.97;12.63;;;-1.30;99.90;;;;;;5050514;28;20390;-79
2020/12/02 06:06:20;;;;;;;18.30;12.67;;;-1.30;99.90;;;;;;5055113;28;20397;-81
2020/12/02 06:08:47;;;;;;;16.23;12.17;;;-1.30;99.90;;;;;;5039017;28;20417;-84
2020/12/02 06:11:16;;;;;;;15.27;12.90;;;-1.30;99.90;;;;;;5035095;28;20387;-81
2020/12/02 06:13:50;;;;;;;18.63;14.70;;;-1.30;99.90;;;;;;5072344;28;20450;-80
2020/12/02 06:16:17;;;;;;;19.95;15.20;;;-1.20;99.90;;;;;;5061588;28;20944;-80
2020/12/02 06:18:43;;;;;;;18.92;13.27;;;-1.30;99.90;;;;;;5035923;28;20802;-80
2020/12/02 06:21:20;;;;;;;19.43;13.67;;;-1.30;99.90;;;;;;5057173;28;20390;-81
2020/12/02 06:23:51;;;;;;;17.83;13.60;;;-1.30;99.90;;;;;;5051139;28;20424;-80
2020/12/02 06:26:33;;;;;;;18.55;12.85;;;-1.30;99.90;;;;;;5039506;28;20402;-83
2020/12/02 06:28:58;;;;;;;17.75;12.23;;;-1.30;99.90;;;;;;5035930;28;20394;-79
2020/12/02 06:31:26;;;;;;;21.52;14.85;;;-1.30;99.90;;;;;;5071234;28;20388;-80
2020/12/02 06:33:52;;;;;;;18.42;13.55;;;-1.30;99.90;;;;;;5038821;28;20771;-79
2020/12/02 06:36:28;;;;;;;24.47;16.47;;;-1.30;99.90;;;;;;5041913;28;20390;-82
2020/12/02 06:39:10;;;;;;;23.23;14.73;;;-1.30;99.90;;;;;;5072704;28;20950;-79
2020/12/02 06:41:40;;;;;;;18.75;13.95;;;-1.40;99.90;;;;;;5068686;28;20459;-81
2020/12/02 06:44:11;;;;;;;18.45;13.30;;;-1.30;99.90;;;;;;5053430;28;20394;-79
2020/12/02 06:46:57;;;;;;;20.75;14.10;;;-1.20;99.90;;;;;;5071521;28;20416;-81
2020/12/02 06:49:25;;;;;;;21.17;14.48;;;-1.20;99.90;;;;;;5036836;28;20388;-82
2020/12/02 06:52:11;;;;;;;18.50;11.97;;;-1.20;99.90;;;;;;5051413;28;20451;-83
2020/12/02 06:54:38;;;;;;;18.10;13.18;;;-1.20;99.90;;;;;;5038559;28;20397;-81
2020/12/02 06:57:24;;;;;;;22.13;13.83;;;-1.20;99.90;;;;;;5035400;28;20415;-80
2020/12/02 06:59:59;;;;;;;19.08;13.40;;;-1.10;99.90;;;;;;5049281;28;20392;-80
2020/12/02 07:02:53;;;;;;;18.25;12.95;;;-1.10;99.90;;;;;;5056737;28;20489;-83
2020/12/02 07:05:42;;;;;;;18.23;12.77;;;-1.10;99.90;;;;;;5057685;28;20398;-82
2020/12/02 07:08:18;;;;;;;16.95;12.20;;;-1.10;99.90;;;;;;5073270;28;20461;-80
2020/12/02 07:10:56;;;;;;;19.40;13.03;;;-1.10;99.90;;;;;;5069421;28;20419;-82
2020/12/02 07:13:22;;;;;;;16.03;12.77;;;-1.10;99.90;;;;;;5043327;28;20427;-80
2020/12/02 07:15:47;;;;;;;15.40;11.77;;;-1.00;99.90;;;;;;5048608;28;20438;-80
2020/12/02 07:18:15;;;;;;;21.75;14.65;;;-1.00;99.90;;;;;;5056891;28;20500;-81
2020/12/02 07:20:48;;;;;;;17.52;12.57;;;-0.90;99.90;;;;;;5042258;28;20397;-81
2020/12/02 07:23:18;;;;;;;17.98;12.55;;;-1.00;99.90;;;;;;5054399;28;20392;-81
2020/12/02 07:25:47;;;;;;;19.17;12.50;;;-0.90;99.90;;;;;;5055010;28;20416;-83
2020/12/02 07:28:17;;;;;;;20.23;14.05;;;-0.90;99.90;;;;;;5037959;28;20855;-80
2020/12/02 07:30:44;;;;;;;19.92;13.63;;;-0.80;99.90;;;;;;5071541;28;20391;-83
2020/12/02 07:33:27;;;;;;;21.00;14.47;;;-0.80;99.90;;;;;;5071274;28;20494;-84
2020/12/02 07:36:14;;;;;;;18.70;13.50;;;-0.80;99.90;;;;;;5054275;28;20458;-81
2020/12/02 07:38:41;;;;;;;21.50;14.07;;;-0.70;99.90;;;;;;5053527;28;20403;-81
2020/12/02 07:41:16;;;;;;;18.10;13.45;;;-0.70;99.90;;;;;;5056969;28;20395;-81
2020/12/02 07:43:42;;;;;;;21.92;14.05;;;-0.60;99.90;;;;;;5054839;28;20433;-80
2020/12/02 07:46:08;;;;;;;20.98;13.68;;;-0.60;99.90;;;;;;5039187;28;20399;-81
2020/12/02 07:48:34;;;;;;;21.03;13.53;;;-0.50;99.90;;;;;;5053848;28;20396;-79
2020/12/02 07:51:06;;;;;;;20.27;14.07;;;-0.50;99.90;;;;;;5053652;28;20499;-81
2020/12/02 07:53:49;;;;;;;21.67;13.88;;;-0.40;99.90;;;;;;5040948;28;20421;-82
2020/12/02 07:56:48;;;;;;;22.02;14.52;;;-0.30;99.90;;;;;;5070330;28;20406;-81
2020/12/02 07:59:24;;;;;;;19.33;13.95;;;-0.30;99.90;;;;;;5003894;28;20751;-80
2020/12/02 08:01:56;;;;;;;21.13;15.27;;;-0.30;99.90;;;;;;5022242;28;20829;-81
2020/12/02 08:04:22;;;;;;;20.67;13.95;;;-0.30;99.90;;;;;;5092318;28;20901;-83
2020/12/02 08:06:58;;;;;;;22.77;14.90;;;-0.30;99.90;;;;;;5073245;28;20393;-82
2020/12/02 08:09:23;;;;;;;18.35;13.05;;;-0.20;99.90;;;;;;5070715;28;20419;-79
2020/12/02 08:11:50;;;;;;;20.55;14.45;;;-0.20;99.90;;;;;;5086111;28;20404;-83
2020/12/02 08:14:25;;;;;;;18.48;13.38;;;-0.20;99.90;;;;;;5031519;28;20404;-80
2020/12/02 08:16:53;;;;;;;20.17;13.82;;;-0.20;99.90;;;;;;5041491;28;20394;-83
2020/12/02 08:19:29;;;;;;;20.83;13.85;;;-0.20;99.90;;;;;;5076205;28;20394;-82
2020/12/02 08:21:55;;;;;;;17.48;12.93;;;-0.10;99.90;;;;;;5061830;28;20397;-82
2020/12/02 08:24:33;;;;;;;20.83;13.53;;;-0.10;99.90;;;;;;5044974;28;20474;-81
2020/12/02 08:26:59;;;;;;;20.15;13.38;;;0.00;99.90;;;;;;5042490;28;20386;-82
2020/12/02 08:29:25;;;;;;;21.07;14.70;;;0.10;99.90;;;;;;5055579;28;20922;-81
2020/12/02 08:32:03;;;;;;;19.17;13.90;;;0.10;99.90;;;;;;5060938;28;20394;-83
2020/12/02 08:34:31;;;;;;;18.98;12.98;;;0.20;99.90;;;;;;5060314;28;20446;-79
2020/12/02 08:37:24;;;;;;;17.92;13.60;;;0.20;99.90;;;;;;5042126;28;20396;-80
2020/12/02 08:39:52;;;;;;;20.58;14.50;;;0.30;99.90;;;;;;5043123;28;20384;-82
2020/12/02 08:42:26;;;;;;;20.40;14.63;;;0.30;99.90;;;;;;5044532;28;20414;-80
2020/12/02 08:45:04;;;;;;;23.42;15.70;;;0.40;99.90;;;;;;5059023;28;20418;-79
2020/12/02 08:47:29;;;;;;;21.10;14.48;;;0.40;99.90;;;;;;5056141;28;20386;-80
2020/12/02 08:49:55;;;;;;;18.80;14.35;;;0.40;99.90;;;;;;5059030;28;20382;-81
2020/12/02 08:52:20;;;;;;;19.70;13.07;;;0.40;99.90;;;;;;5073445;28;20397;-81
2020/12/02 08:54:46;;;;;;;22.35;14.20;;;0.50;99.90;;;;;;5055433;28;21455;-79
2020/12/02 08:57:12;;;;;;;19.43;14.20;;;0.60;99.90;;;;;;5053597;28;20424;-80
2020/12/02 08:59:41;;;;;;;20.48;14.50;;;0.70;99.90;;;;;;5023484;28;20392;-81
2020/12/02 09:02:11;;;;;;;18.38;14.20;;;0.70;99.90;;;;;;5036837;28;20455;-81
2020/12/02 09:04:37;;;;;;;22.03;14.57;;;0.80;99.90;;;;;;5055870;28;20441;-82
2020/12/02 09:07:02;;;;;;;21.73;15.07;;;0.90;99.90;;;;;;5042668;28;20394;-84
2020/12/02 09:09:28;;;;;;;20.83;14.57;;;0.90;99.90;;;;;;5053546;28;20390;-82
2020/12/02 09:11:54;;;;;;;20.17;14.73;;;1.00;99.90;;;;;;5059275;28;20393;-79
2020/12/02 09:14:20;;;;;;;17.63;13.07;;;1.00;99.90;;;;;;5060998;28;20382;-79
2020/12/02 09:16:45;;;;;;;19.90;14.90;;;1.10;99.90;;;;;;5039245;28;21194;-81
2020/12/02 09:19:12;;;;;;;24.35;15.40;;;1.20;99.90;;;;;;5056610;28;20400;-83
2020/12/02 09:21:38;;;;;;;20.83;14.88;;;1.20;99.90;;;;;;5024939;28;20407;-80
2020/12/02 09:24:06;;;;;;;23.85;15.38;;;1.20;99.90;;;;;;5061394;28;20382;-82
2020/12/02 09:26:38;;;;;;;22.15;16.02;;;1.30;99.90;;;;;;5038595;28;20453;-80
2020/12/02 09:29:04;;;;;;;20.25;14.70;;;1.40;99.90;;;;;;5043024;28;20438;-81
2020/12/02 09:31:30;;;;;;;21.52;14.27;;;1.40;99.90;;;;;;5033669;28;20396;-79
2020/12/02 09:33:55;;;;;;;22.10;14.50;;;1.60;99.90;;;;;;5048266;28;20403;-77
2020/12/02 09:36:21;;;;;;;22.25;15.13;;;1.70;99.90;;;;;;5037105;28;20903;-79
2020/12/02 09:38:48;;;;;;;22.27;15.63;;;1.80;99.90;;;;;;5055296;28;20451;-79
2020/12/02 09:41:32;;;;;;;23.90;16.00;;;1.90;99.90;;;;;;5067703;28;20846;-78
2020/12/02 09:44:18;;;;;;;22.25;16.05;;;2.00;99.90;;;;;;5041696;28;20402;-79
2020/12/02 09:46:44;;;;;;;21.33;15.57;;;2.00;99.90;;;;;;5075102;28;20471;-78
2020/12/02 09:49:11;;;;;;;20.17;15.10;;;2.10;99.90;;;;;;5055419;28;20450;-78
2020/12/02 09:51:36;;;;;;;21.63;14.57;;;2.10;99.90;;;;;;5037862;28;20389;-79
2020/12/02 09:54:02;;;;;;;23.07;15.07;;;2.20;99.90;;;;;;5051454;28;20396;-79
2020/12/02 09:56:28;;;;;;;22.95;15.68;;;2.30;99.90;;;;;;5039159;28;20411;-78
2020/12/02 09:59:06;;;;;;;19.60;15.40;;;2.40;99.90;;;;;;5040013;28;20397;-79
2020/12/02 10:01:54;;;;;;;19.83;14.35;;;2.40;99.90;;;;;;5036621;28;20387;-79
2020/12/02 10:04:31;;;;;;;20.70;14.68;;;2.50;99.90;;;;;;5056163;28;20390;-78
2020/12/02 10:07:11;;;;;;;23.50;15.98;;;2.50;99.90;;;;;;5055726;28;20424;-78
2020/12/02 10:10:08;;;;;;;24.48;15.30;;;2.40;99.90;;;;;;5054711;28;20389;-77
2020/12/02 10:13:02;;;;;;;20.20;15.60;;;2.60;99.90;;;;;;5066946;28;20946;-79
2020/12/02 10:15:55;;;;;;;22.35;15.50;;;2.70;99.90;;;;;;5068960;28;20424;-79
2020/12/02 10:18:35;;;;;;;23.05;15.50;;;2.70;99.90;;;;;;5037037;28;20398;-79
2020/12/02 10:21:11;;;;;;;18.48;14.25;;;2.80;99.90;;;;;;5035811;28;20386;-79
2020/12/02 10:23:56;;;;;;;21.42;15.57;;;2.90;99.90;;;;;;5045484;28;20388;-78
2020/12/02 10:26:43;;;;;;;24.50;15.68;;;3.00;99.90;;;;;;5052544;28;20838;-79
2020/12/02 10:29:12;;;;;;;19.80;14.40;;;3.10;99.90;;;;;;5082795;28;20395;-79
2020/12/02 10:31:58;;;;;;;21.35;14.95;;;3.20;99.90;;;;;;5052865;28;20420;-79
2020/12/02 10:34:27;;;;;;;22.80;14.90;;;3.10;99.90;;;;;;5046530;28;20935;-79
2020/12/02 10:36:58;;;;;;;21.05;14.50;;;3.10;99.90;;;;;;5033310;28;20576;-79
2020/12/02 10:39:30;;;;;;;21.20;15.55;;;3.10;99.90;;;;;;5047825;28;20415;-79
2020/12/02 10:42:02;;;;;;;21.45;15.38;;;3.20;99.90;;;;;;5065715;28;20459;-80
2020/12/02 10:44:49;;;;;;;20.47;15.07;;;3.30;99.90;;;;;;5047665;28;20376;-80
2020/12/02 10:47:20;;;;;;;17.53;13.40;;;3.30;99.90;;;;;;5071437;28;20477;-78
2020/12/02 10:49:47;;;;;;;15.80;12.75;;;3.40;99.90;;;;;;5037214;28;20431;-79
2020/12/02 10:52:17;;;;;;;20.73;13.90;;;3.50;99.90;;;;;;5044518;28;20434;-80
2020/12/02 10:54:47;;;;;;;19.02;13.98;;;3.50;99.90;;;;;;5036083;28;20440;-79
2020/12/02 10:57:15;;;;;;;18.40;13.13;;;3.50;99.90;;;;;;5045709;28;20396;-79
2020/12/02 10:59:41;;;;;;;19.67;13.55;;;3.60;99.90;;;;;;5037089;28;20426;-79
2020/12/02 11:02:15;;;;;;;17.60;13.77;;;3.80;99.90;;;;;;5055545;28;20422;-80
2020/12/02 11:04:47;;;;;;;20.30;14.05;;;4.10;99.90;;;;;;5048870;28;20424;-80
2020/12/02 11:07:18;;;;;;;17.67;13.18;;;4.10;99.90;;;;;;5066676;28;20426;-80
2020/12/02 11:09:44;;;;;;;19.35;13.85;;;4.10;99.90;;;;;;5067950;28;20386;-80
2020/12/02 11:12:27;;;;;;;18.27;13.30;;;4.10;99.90;;;;;;5056882;28;20443;-79
2020/12/02 11:15:09;;;;;;;19.60;13.43;;;4.10;99.90;;;;;;5050033;28;20406;-79
2020/12/02 11:17:54;;;;;;;19.95;14.30;;;4.40;99.90;;;;;;5046283;28;20387;-79
2020/12/02 11:20:53;;;;;;;17.27;13.40;;;4.70;99.90;;;;;;5050291;28;20451;-80
2020/12/02 11:27:48;;;;;;;21.38;14.90;;;5.20;99.90;;;;;;5063734;28;20413;-80
2020/12/02 11:35:07;;;;;;;19.38;14.68;;;5.50;99.90;;;;;;5075720;28;20827;-79
2020/12/02 11:42:03;;;;;;;22.33;14.85;;;6.00;99.90;;;;;;5012483;28;20455;-79
2020/12/02 11:48:31;;;;;;;22.52;14.88;;;6.20;99.90;;;;;;4986982;28;20474;-79
2020/12/02 11:51:38;;;;;;;21.45;14.95;;;6.30;99.90;;;;;;4978693;28;20386;-79
2020/12/02 11:55:05;;;;;;;21.50;15.27;;;6.50;99.90;;;;;;5005612;28;20398;-79
2020/12/02 12:01:43;;;;;;;22.92;15.00;;;6.30;99.90;;;;;;5040723;28;20460;-80
2020/12/02 12:08:37;;;;;;;20.25;14.10;;;6.40;99.90;;;;;;5031130;28;20967;-78
2020/12/02 12:18:40;;;;;;;19.30;14.40;;;6.10;99.90;;;;;;5003434;28;20404;-49
2020/12/02 12:21:22;;;;;;;24.00;15.10;;;6.00;99.90;;;;;;4974895;28;20419;-48
2020/12/02 12:23:59;;;;;;;23.60;15.07;;;5.80;99.90;;;;;;4970256;28;20396;-48
2020/12/02 12:26:27;;;;;;;21.70;14.85;;;5.50;99.90;;;;;;5004603;28;20389;-48
2020/12/02 12:28:52;;;;;;;22.58;15.25;;;5.40;99.90;;;;;;5004146;28;20900;-48
2020/12/02 12:31:29;;;;;;;20.33;14.55;;;5.50;99.90;;;;;;5004754;28;20405;-48
2020/12/02 12:34:01;;;;;;;23.75;15.63;;;5.60;99.90;;;;;;4988023;28;20467;-48
2020/12/02 12:36:26;;;;;;;22.65;16.48;;;5.70;99.90;;;;;;4973760;28;20465;-48
2020/12/02 12:39:13;;;;;;;23.43;16.37;;;5.70;99.90;;;;;;4988973;28;20388;-48
2020/12/02 12:41:42;;;;;;;23.67;16.23;;;5.50;99.90;;;;;;5002573;28;20420;-48
2020/12/02 12:44:26;;;;;;;22.75;16.33;;;5.40;99.90;;;;;;5003715;28;20416;-48
2020/12/02 12:47:19;;;;;;;24.05;16.90;;;5.20;99.90;;;;;;5005177;28;20440;-48
2020/12/02 12:49:45;;;;;;;21.52;15.85;;;5.10;99.90;;;;;;5005610;28;20392;-48
2020/12/02 12:52:14;;;;;;;23.93;17.30;;;5.30;99.90;;;;;;5006720;28;20405;-52
2020/12/02 12:54:41;;;;;;;26.45;17.27;;;5.40;99.90;;;;;;4988919;28;20488;-48
2020/12/02 12:57:07;;;;;;;21.42;16.27;;;5.40;99.90;;;;;;5005097;28;20401;-48
2020/12/02 12:59:33;;;;;;;25.35;16.67;;;5.50;99.90;;;;;;4988554;28;20401;-48
2020/12/02 13:01:58;;;;;;;19.80;15.05;;;5.60;99.90;;;;;;5004018;28;20407;-48
2020/12/02 13:04:25;;;;;;;23.08;16.60;;;5.50;99.90;;;;;;5006896;28;20468;-48
2020/12/02 13:07:14;;;;;;;21.48;15.88;;;5.40;99.90;;;;;;5009942;28;20447;-48
2020/12/02 13:10:10;;;;;;;21.58;16.15;;;5.20;99.90;;;;;;4987662;28;20838;-48
2020/12/02 13:13:08;;;;;;;23.13;16.63;;;5.20;99.90;;;;;;5007410;28;20405;-48
2020/12/02 13:15:39;;;;;;;20.90;16.38;;;5.10;99.90;;;;;;4988077;28;20405;-48
2020/12/02 13:18:30;;;;;;;23.00;17.85;;;5.20;99.90;;;;;;4990114;28;20409;-47
2020/12/02 13:21:11;;;;;;;21.73;16.00;;;5.10;99.90;;;;;;5006770;28;20409;-48
2020/12/02 13:23:39;;;;;;;21.75;16.15;;;5.10;99.90;;;;;;5005890;28;20488;-48
2020/12/02 13:26:14;;;;;;;24.67;16.08;;;5.20;99.90;;;;;;4990806;28;20974;-49
2020/12/02 13:28:52;;;;;;;23.10;16.10;;;5.20;99.90;;;;;;5007231;28;20437;-48